LPPSLEVT

Guest
Details From LPPS - Porto Santo
To LEVT - Vitoria
Flight Number -
Tags Generated
Created
Modified
Stats Distance 870 nm / 1,612 km
Max Altitude 0 ft / 0 m
Waypoints 5
Social Downloads 0
Likes 0
Share VATSIM

Download

Looking for another format? Having issues loading an existing format? Contact us
Advertisement - Login to hide

Notes

Generated

Route

LPPS DEKUS BARDI LOPNA LEVT

ID Type Via Altitude Latitude Longitude Leg Dist Tot Dist Heading (true) Name
O LPPS APT - 0 ft / 0 m 33.08696˚ -16.35048˚ - 0 nm - -
DEKUS FIX - 0 ft / 0 m 38.01528˚ -10.00000˚ 428 nm 428 nm 45° / 48° -
BARDI FIX - 0 ft / 0 m 40.58349˚ -6.30246˚ 230 nm 659 nm 47° / 49° -
LOPNA FIX - 0 ft / 0 m 42.64951˚ -3.01556˚ 192 nm 852 nm 49° / 51° -
O LEVT APT - 0 ft / 0 m 42.87009˚ -2.73703˚ 18 nm 870 nm 43° / 43° -

Altitude Profile

Advertisement - Login to hide

Weather


0- 5 10 15 20 25 30 35+ Temperature / ° C

Clouds and Precipitation
Forecast for 2018-05-26 06:00 UTC. Updated 4 hours ago

Ground ~20,000 ft ~40,000 ft Winds

LPPS

Details ICAO LPPS (PXO)
Name Porto Santo
Region Portugal
Timezone Atlantic/Madeira (UTC+1.0)
Stats Elevation 340 ft / 104 m (AMSL)
Location 33.073413° -16.349946°
Runways 1
Magnetic Variation 4.764° W

METAR

LPPS 260830Z 36014KT 9999 FEW015 SCT030 19/08 Q1019

Decode

TAF

TAF LPPS 260500Z 2606/2712 36015KT 9999 FEW015 BKN030 TEMPO 2606/2712 SCT015

Decode

Departure Runways

ID Width Length Bearing (true) Bearing (mag) Surface Threshold Offset Overrun Length
18 148 ft / 45 m 9,890 ft / 3,014 m 178.11° 182.87° Asphalt 0 ft / 0 m 0 ft / 0 m
36 148 ft / 45 m 9,890 ft / 3,014 m 358.12° 2.88° Asphalt 0 ft / 0 m 499 ft / 152 m

LEVT

Details ICAO LEVT (VIT)
Name Vitoria
Region Spain
Timezone Europe/Madrid (UTC+2.0)
Stats Elevation 1,682 ft / 513 m (AMSL)
Location 42.882847° -2.724460°
Runways 1
Magnetic Variation 0.493° W

METAR

LEVT 260830Z 05003KT 350V080 9999 SCT017 FEW020TCU BKN070 13/11 Q1013

Decode

TAF

TAF AMD LEVT 260826Z 2608/2706 04009KT 9999 FEW015 SCT030 TX20/2614Z TN11/2704Z TEMPO 2608/2620 3000 RA SHRA BKN010 SCT025TCU TEMPO 2608/2619 1400 TSRA BKN030CB

Decode

Destination Runways

ID Width Length Bearing (true) Bearing (mag) Surface Threshold Offset Overrun Length
04 148 ft / 45 m 11,481 ft / 3,500 m 35.83° 36.32° Asphalt 0 ft / 0 m 164 ft / 50 m
22 148 ft / 45 m 11,481 ft / 3,500 m 215.85° 216.34° Asphalt 0 ft / 0 m 164 ft / 50 m

Approach Navaids

Runway Type Ident Frequency Range Bearing (true) Bearing (mag) Slope Elevation
04 Localiser VTO 108.90 MHz 18 nm / 33 km 35.85° 36.35° - 1,682 ft / 513 m (AMSL)
04 Glidescope VTO 108.90 MHz 10 nm / 19 km 35.84° 36.33° 3.00° 1,682 ft / 513 m (AMSL)
04 DME VTO 108.90 MHz 18 nm / 33 km - - - 1,681 ft / 512 m (AMSL)